createdAt,value
2017-10-21T00:00:16.932Z,93.55
2017-10-21T00:01:17.061Z,92.40
2017-10-21T00:02:17.028Z,92.97
2017-10-21T00:03:17.077Z,92.49
2017-10-21T00:04:17.122Z,92.78
2017-10-21T00:05:17.170Z,92.59
2017-10-21T00:06:17.286Z,93.26
2017-10-21T00:07:17.336Z,92.97
2017-10-21T00:08:17.363Z,92.88
2017-10-21T00:09:17.368Z,93.35
2017-10-21T00:10:17.418Z,92.78
2017-10-21T00:11:17.470Z,92.02
2017-10-21T00:12:17.579Z,92.40
2017-10-21T00:13:17.562Z,92.59
2017-10-21T00:14:17.613Z,93.16
2017-10-21T00:15:17.661Z,92.40
2017-10-21T00:16:17.705Z,92.59
2017-10-21T00:17:17.824Z,92.78
2017-10-21T00:18:17.816Z,92.30
2017-10-21T00:19:17.857Z,92.59
2017-10-21T00:20:17.905Z,92.40
2017-10-21T00:21:17.954Z,92.97
2017-10-21T00:22:18.085Z,92.69
2017-10-21T00:23:18.050Z,93.16
2017-10-21T00:24:18.097Z,93.45
2017-10-21T00:25:18.150Z,93.16
2017-10-21T00:26:18.198Z,92.97
2017-10-21T00:27:18.317Z,92.78
2017-10-21T00:28:18.296Z,93.07
2017-10-21T00:29:18.344Z,93.26
2017-10-21T00:30:18.394Z,92.21
2017-10-21T00:31:18.445Z,92.40
2017-10-21T00:32:18.570Z,93.26
2017-10-21T00:33:18.539Z,92.97
2017-10-21T00:34:18.589Z,92.59
2017-10-21T00:35:18.641Z,91.73
2017-10-21T00:36:18.687Z,92.59
2017-10-21T00:37:18.813Z,92.59
2017-10-21T00:38:18.783Z,93.26
2017-10-21T00:39:18.832Z,92.49
2017-10-21T00:40:18.880Z,92.59
2017-10-21T00:41:18.928Z,93.16
2017-10-21T00:42:19.041Z,93.07
2017-10-21T00:43:19.093Z,92.88
2017-10-21T00:44:19.073Z,92.78
2017-10-21T00:45:19.123Z,93.35
2017-10-21T00:46:19.172Z,92.49
2017-10-21T00:47:19.221Z,93.45
2017-10-21T00:48:19.334Z,92.40
2017-10-21T00:49:19.317Z,92.59
2017-10-21T00:50:19.367Z,92.97
2017-10-21T00:51:19.416Z,92.88
2017-10-21T00:52:19.463Z,92.78
2017-10-21T00:53:19.591Z,92.21
2017-10-21T00:54:19.562Z,92.40
2017-10-21T00:55:19.608Z,93.07
2017-10-21T00:56:19.660Z,93.26
2017-10-21T00:57:19.710Z,92.40
2017-10-21T00:58:19.844Z,92.59
2017-10-21T00:59:19.813Z,92.21
2017-10-21T01:00:19.853Z,91.73
2017-10-21T01:01:19.905Z,90.96
2017-10-21T01:02:19.953Z,91.53
2017-10-21T01:03:20.082Z,93.35
2017-10-21T01:04:20.047Z,92.21
2017-10-21T01:05:20.099Z,92.59
2017-10-21T01:06:20.148Z,92.30
2017-10-21T01:07:20.195Z,91.92
2017-10-21T01:08:20.312Z,91.73
2017-10-21T01:09:20.360Z,91.44
2017-10-21T01:10:20.343Z,91.73
2017-10-21T01:11:20.392Z,91.92
2017-10-21T01:12:20.436Z,91.83
2017-10-21T01:13:20.485Z,91.53
2017-10-21T01:14:20.604Z,92.21
2017-10-21T01:15:20.587Z,92.59
2017-10-21T01:16:20.644Z,92.97
2017-10-21T01:17:20.683Z,93.45
2017-10-21T01:18:20.732Z,93.26
2017-10-21T01:19:20.846Z,93.35
2017-10-21T01:20:20.826Z,92.97
2017-10-21T01:21:20.878Z,93.16
2017-10-21T01:22:20.924Z,93.26
2017-10-21T01:23:20.973Z,93.16
2017-10-21T01:24:21.089Z,92.78
2017-10-21T01:25:21.072Z,93.35
2017-10-21T01:26:21.121Z,93.45
2017-10-21T01:27:21.168Z,93.16
2017-10-21T01:28:21.221Z,93.84
2017-10-21T01:29:21.333Z,93.64
2017-10-21T01:30:21.322Z,92.49
2017-10-21T01:31:21.365Z,92.11
2017-10-21T01:32:21.415Z,93.45
2017-10-21T01:33:21.470Z,94.70
2017-10-21T01:34:21.577Z,93.93
2017-10-21T01:35:21.560Z,93.84
2017-10-21T01:36:21.612Z,93.55
2017-10-21T01:37:21.662Z,94.31
2017-10-21T01:38:21.706Z,93.84
2017-10-21T01:39:21.826Z,93.26
2017-10-21T01:40:21.805Z,95.65
2017-10-21T01:41:21.852Z,94.89
2017-10-21T01:42:21.903Z,94.50
2017-10-21T01:43:21.952Z,93.74
2017-10-21T01:44:22.065Z,94.12
2017-10-21T01:45:22.046Z,94.12
2017-10-21T01:46:22.098Z,94.70
2017-10-21T01:47:22.147Z,92.97
2017-10-21T01:48:22.194Z,93.07
2017-10-21T01:49:22.326Z,94.41
2017-10-21T01:50:22.295Z,94.21
2017-10-21T01:51:22.341Z,93.64
2017-10-21T01:52:22.394Z,94.12
2017-10-21T01:53:22.443Z,93.45
2017-10-21T01:54:22.567Z,93.26
2017-10-21T01:55:22.536Z,92.97
2017-10-21T01:56:22.586Z,93.45
2017-10-21T01:57:22.635Z,93.45
2017-10-21T01:58:22.684Z,94.02
2017-10-21T01:59:22.804Z,94.02
2017-10-21T02:00:22.853Z,94.31
2017-10-21T02:01:22.833Z,94.12
2017-10-21T02:02:22.882Z,95.07
2017-10-21T02:03:22.928Z,95.27
2017-10-21T02:04:22.977Z,93.16
2017-10-21T02:05:23.091Z,93.35
2017-10-21T02:06:23.073Z,93.26
2017-10-21T02:07:23.123Z,92.21
2017-10-21T02:08:23.172Z,92.30
2017-10-21T02:09:23.240Z,92.97
2017-10-21T02:10:23.331Z,93.45
2017-10-21T02:11:23.318Z,94.31
2017-10-21T02:12:23.367Z,93.84
2017-10-21T02:13:23.414Z,93.35
2017-10-21T02:14:23.469Z,93.26
2017-10-21T02:15:23.601Z,94.50
2017-10-21T02:16:23.562Z,95.46
2017-10-21T02:17:24.560Z,93.93
2017-10-21T02:18:23.661Z,95.46
2017-10-21T02:19:23.707Z,94.26
2017-10-21T02:20:23.825Z,94.07
2017-10-21T02:21:23.805Z,94.17
2017-10-21T02:22:23.855Z,93.40
2017-10-21T02:23:23.904Z,93.40
2017-10-21T02:24:23.949Z,93.40
2017-10-21T02:25:24.086Z,92.83
2017-10-21T02:26:24.072Z,93.31
2017-10-21T02:27:24.099Z,94.07
2017-10-21T02:28:24.146Z,93.21
2017-10-21T02:29:24.198Z,94.07
2017-10-21T02:30:24.310Z,94.12
2017-10-21T02:31:24.354Z,92.45
2017-10-21T02:32:24.346Z,92.78
2017-10-21T02:33:24.389Z,93.26
2017-10-21T02:34:24.437Z,92.59
2017-10-21T02:35:24.489Z,92.11
2017-10-21T02:36:24.598Z,92.59
2017-10-21T02:37:24.587Z,92.97
2017-10-21T02:38:24.652Z,93.26
2017-10-21T02:39:24.686Z,94.70
2017-10-21T02:40:24.732Z,94.12
2017-10-21T02:41:24.848Z,93.74
2017-10-21T02:42:24.840Z,93.45
2017-10-21T02:43:24.878Z,94.31
2017-10-21T02:44:24.927Z,94.12
2017-10-21T02:45:24.977Z,92.97
2017-10-21T02:46:25.108Z,94.79
2017-10-21T02:47:25.072Z,94.79
2017-10-21T02:48:25.119Z,95.36
2017-10-21T02:49:25.174Z,96.42
2017-10-21T02:50:25.218Z,96.42
2017-10-21T02:51:25.340Z,97.04
2017-10-21T02:52:25.380Z,95.12
2017-10-21T02:53:25.366Z,96.84
2017-10-21T02:54:25.417Z,95.61
2017-10-21T02:55:25.464Z,97.90
2017-10-21T02:56:25.517Z,98.57
2017-10-21T02:57:25.624Z,96.56
2017-10-21T02:58:25.610Z,96.27
2017-10-21T02:59:25.659Z,96.18
2017-10-21T03:00:25.706Z,95.98
2017-10-21T03:01:25.755Z,95.79
2017-10-21T03:02:25.868Z,96.66
2017-10-21T03:03:25.853Z,96.56
2017-10-21T03:04:25.905Z,98.95
2017-10-21T03:05:25.947Z,97.71
2017-10-21T03:06:25.999Z,95.70
2017-10-21T03:07:26.112Z,96.94
2017-10-21T03:08:26.101Z,96.27
2017-10-21T03:09:26.142Z,98.28
2017-10-21T03:10:26.191Z,98.85
2017-10-21T03:11:26.243Z,98.18
2017-10-21T03:12:26.350Z,98.95
2017-10-21T03:13:26.339Z,98.38
2017-10-21T03:14:26.389Z,97.99
2017-10-21T03:15:26.439Z,97.42
2017-10-21T03:16:26.484Z,97.23
2017-10-21T03:17:26.598Z,99.43
2017-10-21T03:18:26.584Z,95.98
2017-10-21T03:19:26.632Z,98.95
2017-10-21T03:20:26.676Z,97.61
2017-10-21T03:21:26.725Z,98.85
2017-10-21T03:22:26.842Z,99.33
2017-10-21T03:23:26.833Z,96.08
2017-10-21T03:24:26.876Z,95.98
2017-10-21T03:25:26.924Z,94.74
2017-10-21T03:26:26.970Z,95.03
2017-10-21T03:27:27.087Z,94.74
2017-10-21T03:28:27.068Z,94.74
2017-10-21T03:29:27.117Z,94.65
2017-10-21T03:30:27.165Z,93.79
2017-10-21T03:31:27.213Z,94.07
2017-10-21T03:32:27.327Z,94.07
2017-10-21T03:33:28.070Z,93.69
2017-10-21T03:34:27.357Z,93.02
2017-10-21T03:35:27.408Z,93.21
2017-10-21T03:36:27.454Z,93.50
2017-10-21T03:37:27.568Z,92.64
2017-10-21T03:38:27.554Z,92.83
2017-10-21T03:39:27.602Z,94.98
2017-10-21T03:40:27.655Z,93.50
2017-10-21T03:41:27.698Z,94.07
2017-10-21T03:42:27.811Z,94.26
2017-10-21T03:43:27.798Z,93.12
2017-10-21T03:44:27.844Z,93.02
2017-10-21T03:45:27.900Z,93.50
2017-10-21T03:46:27.940Z,93.69
2017-10-21T03:47:28.069Z,93.50
2017-10-21T03:48:28.036Z,93.12
2017-10-21T03:49:28.089Z,93.31
2017-10-21T03:50:28.132Z,93.79
2017-10-21T03:51:28.184Z,93.02
2017-10-21T03:52:28.295Z,94.07
2017-10-21T03:53:28.347Z,93.79
2017-10-21T03:54:28.329Z,93.02
2017-10-21T03:55:28.379Z,93.12
2017-10-21T03:56:28.428Z,93.02
2017-10-21T03:57:28.482Z,94.84
2017-10-21T03:58:28.610Z,94.07
2017-10-21T03:59:28.578Z,94.46
2017-10-21T04:00:29.574Z,94.65
2017-10-21T04:01:28.675Z,94.84
2017-10-21T04:02:28.719Z,94.84
2017-10-21T04:03:28.832Z,94.89
2017-10-21T04:04:28.815Z,94.46
2017-10-21T04:05:28.864Z,95.51
2017-10-21T04:06:28.914Z,94.36
2017-10-21T04:07:28.963Z,94.84
2017-10-21T04:08:29.089Z,95.70
2017-10-21T04:09:29.059Z,93.31
2017-10-21T04:10:29.108Z,93.79
2017-10-21T04:11:29.157Z,93.88
2017-10-21T04:12:29.204Z,93.21
2017-10-21T04:13:29.331Z,93.40
2017-10-21T04:14:29.308Z,93.79
2017-10-21T04:15:29.349Z,93.60
2017-10-21T04:16:29.398Z,94.07
2017-10-21T04:17:29.448Z,94.26
2017-10-21T04:18:29.579Z,94.17
2017-10-21T04:19:29.542Z,96.27
2017-10-21T04:20:29.596Z,94.17
2017-10-21T04:21:29.642Z,95.12
2017-10-21T04:22:29.690Z,94.93
2017-10-21T04:23:29.818Z,94.93
2017-10-21T04:24:29.788Z,93.40
2017-10-21T04:25:29.838Z,92.74
2017-10-21T04:26:29.889Z,92.16
2017-10-21T04:27:29.933Z,92.93
2017-10-21T04:28:30.065Z,93.21
2017-10-21T04:29:30.578Z,92.93
2017-10-21T04:30:30.082Z,93.40
2017-10-21T04:31:30.128Z,93.31
2017-10-21T04:32:30.180Z,94.31
2017-10-21T04:33:30.290Z,95.51
2017-10-21T04:34:30.343Z,94.74
2017-10-21T04:35:30.325Z,93.98
2017-10-21T04:36:31.080Z,93.98
2017-10-21T04:37:30.418Z,94.74
2017-10-21T04:38:30.472Z,95.22
2017-10-21T04:39:30.581Z,95.03
2017-10-21T04:40:30.566Z,94.65
2017-10-21T04:41:30.616Z,94.65
2017-10-21T04:42:30.664Z,94.26
2017-10-21T04:43:30.712Z,94.74
2017-10-21T04:44:30.825Z,94.93
2017-10-21T04:45:30.806Z,93.69
2017-10-21T04:46:30.858Z,94.07
2017-10-21T04:47:30.912Z,94.36
2017-10-21T04:48:30.953Z,94.17
2017-10-21T04:49:31.066Z,93.79
2017-10-21T04:50:31.054Z,93.79
2017-10-21T04:51:31.101Z,93.98
2017-10-21T04:52:31.148Z,94.26
2017-10-21T04:53:31.197Z,95.70
2017-10-21T04:54:31.321Z,93.60
2017-10-21T04:55:31.295Z,93.98
2017-10-21T04:56:31.340Z,94.07
2017-10-21T04:57:31.399Z,94.46
2017-10-21T04:58:31.443Z,94.65
2017-10-21T04:59:31.573Z,94.74
2017-10-21T05:00:31.540Z,94.26
2017-10-21T05:01:31.593Z,93.98
2017-10-21T05:02:31.635Z,93.21
2017-10-21T05:03:31.683Z,93.60
2017-10-21T05:04:31.795Z,94.07
2017-10-21T05:05:31.845Z,93.21
2017-10-21T05:06:31.830Z,93.21
2017-10-21T05:07:31.884Z,93.40
2017-10-21T05:08:31.931Z,92.93
2017-10-21T05:09:31.976Z,94.46
2017-10-21T05:10:32.087Z,94.17
2017-10-21T05:11:32.072Z,93.88
2017-10-21T05:12:32.121Z,94.65
2017-10-21T05:13:32.168Z,93.69
2017-10-21T05:14:32.229Z,94.07
2017-10-21T05:15:32.335Z,94.17
2017-10-21T05:16:32.316Z,94.65
2017-10-21T05:17:32.360Z,94.74
2017-10-21T05:18:32.415Z,94.93
2017-10-21T05:19:32.461Z,94.36
2017-10-21T05:20:32.580Z,93.88
2017-10-21T05:21:32.554Z,93.31
2017-10-21T05:22:32.612Z,94.26
2017-10-21T05:23:32.656Z,93.50
2017-10-21T05:24:32.705Z,93.50
2017-10-21T05:25:32.816Z,93.02
2017-10-21T05:26:32.801Z,93.02
2017-10-21T05:27:32.850Z,93.12
2017-10-21T05:28:32.894Z,92.54
2017-10-21T05:29:32.946Z,93.98
2017-10-21T05:30:33.057Z,92.54
2017-10-21T05:31:33.109Z,92.93
2017-10-21T05:32:33.092Z,93.60
2017-10-21T05:33:33.144Z,93.60
2017-10-21T05:34:33.194Z,93.21
2017-10-21T05:35:33.238Z,93.02
2017-10-21T05:36:33.350Z,92.64
2017-10-21T05:37:33.335Z,93.12
2017-10-21T05:38:33.386Z,94.46
2017-10-21T05:39:33.429Z,92.93
2017-10-21T05:40:33.481Z,92.07
2017-10-21T05:41:33.595Z,93.79
2017-10-21T05:42:33.577Z,90.82
2017-10-21T05:43:33.626Z,91.02
2017-10-21T05:44:33.676Z,93.50
2017-10-21T05:45:33.723Z,92.93
2017-10-21T05:46:33.836Z,92.93
2017-10-21T05:47:33.821Z,92.35
2017-10-21T05:48:33.868Z,93.21
2017-10-21T05:49:33.917Z,93.40
2017-10-21T05:50:33.964Z,93.31
2017-10-21T05:51:34.077Z,92.74
2017-10-21T05:52:34.134Z,92.64
2017-10-21T05:53:34.112Z,92.45
2017-10-21T05:54:34.161Z,91.97
2017-10-21T05:55:34.210Z,93.60
2017-10-21T05:56:34.258Z,93.98
2017-10-21T05:57:34.370Z,93.21
2017-10-21T05:58:34.353Z,93.79
2017-10-21T05:59:34.402Z,93.40
2017-10-21T06:00:34.452Z,94.26
2017-10-21T06:01:34.507Z,92.83
2017-10-21T06:02:34.616Z,93.31
2017-10-21T06:03:34.599Z,94.65
2017-10-21T06:04:34.646Z,95.22
2017-10-21T06:05:34.704Z,95.79
2017-10-21T06:06:34.747Z,94.93
2017-10-21T06:07:34.860Z,95.79
2017-10-21T06:08:34.841Z,96.47
2017-10-21T06:09:34.895Z,95.51
2017-10-21T06:10:34.939Z,94.93
2017-10-21T06:11:34.989Z,95.22
2017-10-21T06:12:35.102Z,95.41
2017-10-21T06:13:35.086Z,94.93
2017-10-21T06:14:35.135Z,95.03
2017-10-21T06:15:35.184Z,95.51
2017-10-21T06:16:35.233Z,95.32
2017-10-21T06:17:35.360Z,93.40
2017-10-21T06:18:35.330Z,95.32
2017-10-21T06:19:35.380Z,93.60
2017-10-21T06:20:35.425Z,94.84
2017-10-21T06:21:35.477Z,94.26
2017-10-21T06:22:35.629Z,93.98
2017-10-21T06:23:35.573Z,92.64
2017-10-21T06:24:35.620Z,91.97
2017-10-21T06:25:35.669Z,91.88
2017-10-21T06:26:35.723Z,92.16
2017-10-21T06:27:35.853Z,94.07
2017-10-21T06:28:35.813Z,93.79
2017-10-21T06:29:35.866Z,92.11
2017-10-21T06:30:35.914Z,91.92
2017-10-21T06:31:35.960Z,92.21
2017-10-21T06:32:36.150Z,92.78
2017-10-21T06:33:36.061Z,91.53
2017-10-21T06:34:36.114Z,91.73
2017-10-21T06:35:36.158Z,95.36
2017-10-21T06:36:36.204Z,95.17
2017-10-21T06:37:36.317Z,92.59
2017-10-21T06:38:36.387Z,92.88
2017-10-21T06:39:36.352Z,91.83
2017-10-21T06:40:36.401Z,91.63
2017-10-21T06:41:36.447Z,94.79
2017-10-21T06:42:36.496Z,93.07
2017-10-21T06:43:36.612Z,94.89
2017-10-21T06:44:36.596Z,95.36
2017-10-21T06:45:36.652Z,94.50
2017-10-21T06:46:36.694Z,93.07
2017-10-21T06:47:36.743Z,96.42
2017-10-21T06:48:36.854Z,93.16
2017-10-21T06:49:36.903Z,91.83
2017-10-21T06:50:36.889Z,91.25
2017-10-21T06:51:36.938Z,90.30
2017-10-21T06:52:36.984Z,94.21
2017-10-21T06:53:37.035Z,94.31
2017-10-21T06:54:37.147Z,95.56
2017-10-21T06:55:37.137Z,96.70
2017-10-21T06:56:37.192Z,96.70
2017-10-21T06:57:37.232Z,96.03
2017-10-21T06:58:37.750Z,97.75
2017-10-21T06:59:37.394Z,98.24
2017-10-21T07:00:37.380Z,99.67
2017-10-21T07:01:37.426Z,98.43
2017-10-21T07:02:37.476Z,98.90
2017-10-21T07:03:37.522Z,99.38
2017-10-21T07:04:37.637Z,98.71
2017-10-21T07:05:37.620Z,94.12
2017-10-21T07:06:37.670Z,94.50
2017-10-21T07:07:37.720Z,97.28
2017-10-21T07:08:37.769Z,97.37
2017-10-21T07:09:37.879Z,94.79
2017-10-21T07:10:37.865Z,91.58
2017-10-21T07:11:37.917Z,91.97
2017-10-21T07:12:37.977Z,92.35
2017-10-21T07:13:38.013Z,92.44
2017-10-21T07:14:38.144Z,94.93
2017-10-21T07:15:38.112Z,92.73
2017-10-21T07:16:38.164Z,93.02
2017-10-21T07:17:38.210Z,92.54
2017-10-21T07:18:38.262Z,91.77
2017-10-21T07:19:38.391Z,93.40
2017-10-21T07:20:38.356Z,91.11
2017-10-21T07:21:38.407Z,89.19
2017-10-21T07:22:38.457Z,89.00
2017-10-21T07:23:38.503Z,89.23
2017-10-21T07:24:38.635Z,88.81
2017-10-21T07:25:38.600Z,89.19
2017-10-21T07:26:38.651Z,91.25
2017-10-21T07:27:38.702Z,88.90
2017-10-21T07:28:38.750Z,88.33
2017-10-21T07:29:38.871Z,88.95
2017-10-21T07:30:38.912Z,89.14
2017-10-21T07:31:38.898Z,88.37
2017-10-21T07:32:38.944Z,87.70
2017-10-21T07:33:39.007Z,87.90
2017-10-21T07:34:39.046Z,89.04
2017-10-21T07:35:39.175Z,87.90
2017-10-21T07:36:39.147Z,88.18
2017-10-21T07:37:39.194Z,88.37
2017-10-21T07:38:39.243Z,88.18
2017-10-21T07:39:39.295Z,87.90
2017-10-21T07:40:39.403Z,87.51
2017-10-21T07:41:39.391Z,87.13
2017-10-21T07:42:39.445Z,87.51
2017-10-21T07:43:39.490Z,88.37
2017-10-21T07:44:39.539Z,88.13
2017-10-21T07:45:39.671Z,87.65
2017-10-21T07:46:39.638Z,86.79
2017-10-21T07:47:39.688Z,86.21
2017-10-21T07:48:39.733Z,86.02
2017-10-21T07:49:39.780Z,87.65
2017-10-21T07:50:39.921Z,87.37
2017-10-21T07:51:39.885Z,86.69
2017-10-21T07:52:39.934Z,86.79
2017-10-21T07:53:39.978Z,86.21
2017-10-21T07:54:40.032Z,85.83
2017-10-21T07:55:40.161Z,86.12
2017-10-21T07:56:40.134Z,85.74
2017-10-21T07:57:40.178Z,85.83
2017-10-21T07:58:40.232Z,85.45
2017-10-21T07:59:40.279Z,85.78
2017-10-21T08:00:40.418Z,86.07
2017-10-21T08:01:40.384Z,85.58
2017-10-21T08:02:40.432Z,85.88
2017-10-21T08:03:40.476Z,86.25
2017-10-21T08:04:40.526Z,86.35
2017-10-21T08:05:40.824Z,85.39
2017-10-21T08:06:40.624Z,85.21
2017-10-21T08:07:40.674Z,84.25
2017-10-21T08:08:40.728Z,85.58
2017-10-21T08:09:40.772Z,84.05
2017-10-21T08:10:40.824Z,82.52
2017-10-21T08:11:40.953Z,83.52
2017-10-21T08:12:40.923Z,84.58
2017-10-21T08:13:40.973Z,84.00
2017-10-21T08:14:41.022Z,84.00
2017-10-21T08:15:41.071Z,83.91
2017-10-21T08:16:41.187Z,83.91
2017-10-21T08:17:41.169Z,83.14
2017-10-21T08:18:41.222Z,82.75
2017-10-21T08:19:41.271Z,84.14
2017-10-21T08:20:41.325Z,84.71
2017-10-21T08:21:41.452Z,83.18
2017-10-21T08:22:41.419Z,82.21
2017-10-21T08:23:41.467Z,82.03
2017-10-21T08:24:41.523Z,81.07
2017-10-21T08:25:41.570Z,80.78
2017-10-21T08:26:41.698Z,80.78
2017-10-21T08:27:41.737Z,81.35
2017-10-21T08:28:41.720Z,81.84
2017-10-21T08:29:41.793Z,82.03
2017-10-21T08:30:41.821Z,83.27
2017-10-21T08:31:41.953Z,82.21
2017-10-21T08:32:41.923Z,83.85
2017-10-21T08:33:41.978Z,83.14
2017-10-21T08:34:42.021Z,82.46
2017-10-21T08:35:42.078Z,83.81
2017-10-21T08:36:42.194Z,82.56
2017-10-21T08:37:42.182Z,81.79
2017-10-21T08:38:42.225Z,83.23
2017-10-21T08:39:42.273Z,83.95
2017-10-21T08:40:42.323Z,83.86
2017-10-21T08:41:42.454Z,84.63
2017-10-21T08:42:42.421Z,86.25
2017-10-21T08:43:42.473Z,86.83
2017-10-21T08:44:42.526Z,85.78
2017-10-21T08:45:42.572Z,86.79
2017-10-21T08:46:42.706Z,86.25
2017-10-21T08:47:42.674Z,86.88
2017-10-21T08:48:42.726Z,87.37
2017-10-21T08:49:42.775Z,87.74
2017-10-21T08:50:42.824Z,88.42
2017-10-21T08:51:42.955Z,89.09
2017-10-21T08:52:42.921Z,89.28
2017-10-21T08:53:42.972Z,89.09
2017-10-21T08:54:43.023Z,89.57
2017-10-21T08:55:43.073Z,90.14
2017-10-21T08:56:43.186Z,90.14
2017-10-21T08:57:43.236Z,90.33
2017-10-21T08:58:43.218Z,90.14
2017-10-21T08:59:43.267Z,90.43
2017-10-21T09:00:43.323Z,91.49
2017-10-21T09:01:43.366Z,91.86
2017-10-21T09:02:43.485Z,93.02
2017-10-21T09:03:43.473Z,93.59
2017-10-21T09:04:43.520Z,93.59
2017-10-21T09:05:43.569Z,94.35
2017-10-21T09:06:43.622Z,94.45
2017-10-21T09:07:43.734Z,94.26
2017-10-21T09:08:43.717Z,95.22
2017-10-21T09:09:43.766Z,94.45
2017-10-21T09:10:43.823Z,93.69
2017-10-21T09:11:43.868Z,93.98
2017-10-21T09:12:43.980Z,94.21
2017-10-21T09:13:43.966Z,93.59
2017-10-21T09:14:44.015Z,93.93
2017-10-21T09:15:44.065Z,94.02
2017-10-21T09:16:44.114Z,94.02
2017-10-21T09:17:44.242Z,93.93
2017-10-21T09:18:44.229Z,93.21
2017-10-21T09:19:44.265Z,93.21
2017-10-21T09:20:44.311Z,93.59
2017-10-21T09:21:44.364Z,92.72
2017-10-21T09:22:44.495Z,93.30
2017-10-21T09:23:44.465Z,91.42
2017-10-21T09:24:44.514Z,89.99
2017-10-21T09:25:45.133Z,89.41
2017-10-21T09:26:44.612Z,88.55
2017-10-21T09:27:44.726Z,88.07
2017-10-21T09:28:44.772Z,87.59
2017-10-21T09:29:44.766Z,88.45
2017-10-21T09:30:44.813Z,88.45
2017-10-21T09:31:44.862Z,87.98
2017-10-21T09:32:44.909Z,88.07
2017-10-21T09:33:45.024Z,88.59
2017-10-21T09:34:45.016Z,87.19
2017-10-21T09:35:45.068Z,85.71
2017-10-21T09:36:45.122Z,84.26
2017-10-21T09:37:45.163Z,81.90
2017-10-21T09:38:45.279Z,81.90
2017-10-21T09:39:45.266Z,80.17
2017-10-21T09:40:45.317Z,80.46
2017-10-21T09:41:45.369Z,78.83
2017-10-21T09:42:45.418Z,76.81
2017-10-21T09:43:45.550Z,76.14
2017-10-21T09:44:45.525Z,75.11
2017-10-21T09:45:45.574Z,75.15
2017-10-21T09:46:45.629Z,72.01
2017-10-21T09:47:45.675Z,72.20
2017-10-21T09:48:45.791Z,72.81
2017-10-21T09:49:45.848Z,71.50
2017-10-21T09:50:45.834Z,68.23
2017-10-21T09:51:45.885Z,68.93
2017-10-21T09:52:45.939Z,66.27
2017-10-21T09:53:45.990Z,68.19
2017-10-21T09:54:46.105Z,66.46
2017-10-21T09:55:46.098Z,64.56
2017-10-21T09:56:46.151Z,66.11
2017-10-21T09:57:46.211Z,66.30
2017-10-21T09:58:46.257Z,67.33
2017-10-21T09:59:46.378Z,68.04
2017-10-21T10:00:46.367Z,68.13
2017-10-21T10:01:46.421Z,67.55
2017-10-21T10:02:46.475Z,66.91
2017-10-21T10:03:46.534Z,66.94
2017-10-21T10:04:46.649Z,65.47
2017-10-21T10:05:46.642Z,65.69
2017-10-21T10:06:46.695Z,67.27
2017-10-21T10:07:46.750Z,66.59
2017-10-21T10:08:46.803Z,64.63
2017-10-21T10:09:46.940Z,66.46
2017-10-21T10:10:46.913Z,65.75
2017-10-21T10:11:46.968Z,66.62
2017-10-21T10:12:47.022Z,65.66
2017-10-21T10:13:47.082Z,66.27
2017-10-21T10:14:47.218Z,65.72
2017-10-21T10:15:47.189Z,65.34
2017-10-21T10:16:47.244Z,63.95
2017-10-21T10:17:47.300Z,64.66
2017-10-21T10:18:47.358Z,63.63
2017-10-21T10:19:47.497Z,60.92
2017-10-21T10:20:47.467Z,62.34
2017-10-21T10:21:47.524Z,64.14
2017-10-21T10:22:47.585Z,63.34
2017-10-21T10:23:47.636Z,64.50
2017-10-21T10:24:47.765Z,64.53
2017-10-21T10:25:47.748Z,63.82
2017-10-21T10:26:47.803Z,64.59
2017-10-21T10:27:47.860Z,65.34
2017-10-21T10:28:47.915Z,67.75
2017-10-21T10:29:48.047Z,67.40
2017-10-21T10:30:48.027Z,68.16
2017-10-21T10:31:48.085Z,68.49
2017-10-21T10:32:48.139Z,68.43
2017-10-21T10:33:48.190Z,68.13
2017-10-21T10:34:48.333Z,67.59
2017-10-21T10:35:48.305Z,67.33
2017-10-21T10:36:48.360Z,65.69
2017-10-21T10:37:48.418Z,64.82
2017-10-21T10:38:48.471Z,64.53
2017-10-21T10:39:48.612Z,64.50
2017-10-21T10:40:48.584Z,66.05
2017-10-21T10:41:48.638Z,66.14
2017-10-21T10:42:48.696Z,67.07
2017-10-21T10:43:48.748Z,66.49
2017-10-21T10:44:48.866Z,67.23
2017-10-21T10:45:48.926Z,68.19
2017-10-21T10:46:48.919Z,68.68
2017-10-21T10:47:48.971Z,68.87
2017-10-21T10:48:49.027Z,70.86
2017-10-21T10:49:49.081Z,71.34
2017-10-21T10:50:49.203Z,70.76
2017-10-21T10:51:49.193Z,70.86
2017-10-21T10:52:49.244Z,71.06
2017-10-21T10:53:49.302Z,71.98
2017-10-21T10:54:49.354Z,72.66
2017-10-21T10:55:49.472Z,72.56
2017-10-21T10:56:49.466Z,73.72
2017-10-21T10:57:49.514Z,72.66
2017-10-21T10:58:49.575Z,72.27
2017-10-21T10:59:49.627Z,72.66
2017-10-21T11:00:49.745Z,72.56
2017-10-21T11:01:49.734Z,71.89
2017-10-21T11:02:49.788Z,72.37
2017-10-21T11:03:49.842Z,72.75
2017-10-21T11:04:49.900Z,73.05
2017-10-21T11:05:50.013Z,72.75
2017-10-21T11:06:50.004Z,73.37
2017-10-21T11:07:50.056Z,72.27
2017-10-21T11:08:50.111Z,72.27
2017-10-21T11:09:50.162Z,73.62
2017-10-21T11:10:50.275Z,74.01
2017-10-21T11:11:50.271Z,73.53
2017-10-21T11:12:50.323Z,73.53
2017-10-21T11:13:50.376Z,73.62
2017-10-21T11:14:50.436Z,73.53
2017-10-21T11:15:50.567Z,73.05
2017-10-21T11:16:50.544Z,74.68
2017-10-21T11:17:50.591Z,74.14
2017-10-21T11:18:50.644Z,74.33
2017-10-21T11:19:50.698Z,73.85
2017-10-21T11:20:50.837Z,74.82
2017-10-21T11:21:50.807Z,73.27
2017-10-21T11:22:50.859Z,73.08
2017-10-21T11:23:50.912Z,72.89
2017-10-21T11:24:50.963Z,72.89
2017-10-21T11:25:51.121Z,72.31
2017-10-21T11:26:51.076Z,73.33
2017-10-21T11:27:51.124Z,74.01
2017-10-21T11:28:51.179Z,74.88
2017-10-21T11:29:51.233Z,75.49
2017-10-21T11:30:51.367Z,76.36
2017-10-21T11:31:51.337Z,74.72
2017-10-21T11:32:51.391Z,74.49
2017-10-21T11:33:51.449Z,74.88
2017-10-21T11:34:51.499Z,75.36
2017-10-21T11:35:51.632Z,73.72
2017-10-21T11:36:51.606Z,74.62
2017-10-21T11:37:51.657Z,74.72
2017-10-21T11:38:51.720Z,74.33
2017-10-21T11:39:51.767Z,73.47
2017-10-21T11:40:51.894Z,72.50
2017-10-21T11:41:51.875Z,72.31
2017-10-21T11:42:51.927Z,73.69
2017-10-21T11:43:51.977Z,72.15
2017-10-21T11:44:52.035Z,71.64
2017-10-21T11:45:52.165Z,72.21
2017-10-21T11:46:52.136Z,73.66
2017-10-21T11:47:52.190Z,73.37
2017-10-21T11:48:52.242Z,72.41
2017-10-21T11:49:52.297Z,73.85
2017-10-21T11:50:52.418Z,73.85
2017-10-21T11:51:52.406Z,73.24
2017-10-21T11:52:52.460Z,73.33
2017-10-21T11:53:52.510Z,74.24
2017-10-21T11:54:52.565Z,73.08
2017-10-21T11:55:52.698Z,74.68
2017-10-21T11:56:52.670Z,75.55
2017-10-21T11:57:52.723Z,76.13
2017-10-21T11:58:52.778Z,75.74
2017-10-21T11:59:52.830Z,75.55
2017-10-21T12:00:52.949Z,76.13
2017-10-21T12:01:52.938Z,75.65
2017-10-21T12:02:52.989Z,76.13
2017-10-21T12:03:53.044Z,76.23
2017-10-21T12:04:53.090Z,76.32
2017-10-21T12:05:53.210Z,77.76
2017-10-21T12:06:53.264Z,76.90
2017-10-21T12:07:53.257Z,77.00
2017-10-21T12:08:53.307Z,77.28
2017-10-21T12:09:53.355Z,76.03
2017-10-21T12:10:53.413Z,76.51
2017-10-21T12:11:53.531Z,76.90
2017-10-21T12:12:53.522Z,75.36
2017-10-21T12:13:53.574Z,76.51
2017-10-21T12:14:53.623Z,76.71
2017-10-21T12:15:53.675Z,75.65
2017-10-21T12:16:53.791Z,76.71
2017-10-21T12:17:53.784Z,75.84
2017-10-21T12:18:53.834Z,76.51
2017-10-21T12:19:53.887Z,75.07
2017-10-21T12:20:53.941Z,75.84
2017-10-21T12:21:54.072Z,76.32
2017-10-21T12:22:54.047Z,76.71
2017-10-21T12:23:54.100Z,76.86
2017-10-21T12:24:54.151Z,75.51
2017-10-21T12:25:54.203Z,75.71
2017-10-21T12:26:54.329Z,76.57
2017-10-21T12:27:54.309Z,75.99
2017-10-21T12:28:54.362Z,75.61
2017-10-21T12:29:54.416Z,76.18
2017-10-21T12:30:54.466Z,77.92
2017-10-21T12:31:54.602Z,76.57
2017-10-21T12:32:54.572Z,77.63
2017-10-21T12:33:54.624Z,77.53
2017-10-21T12:34:54.673Z,76.25
2017-10-21T12:35:54.730Z,76.18
2017-10-21T12:36:54.851Z,77.15
2017-10-21T12:37:54.843Z,77.73
2017-10-21T12:38:54.887Z,78.31
2017-10-21T12:39:54.938Z,77.01
2017-10-21T12:40:54.996Z,77.69
2017-10-21T12:41:55.156Z,77.50
2017-10-21T12:42:55.097Z,77.98
2017-10-21T12:43:55.150Z,77.50
2017-10-21T12:44:55.201Z,77.50
2017-10-21T12:45:55.250Z,78.85
2017-10-21T12:46:55.371Z,77.69
2017-10-21T12:47:55.427Z,76.28
2017-10-21T12:48:55.411Z,76.92
2017-10-21T12:49:55.467Z,77.06
2017-10-21T12:50:55.523Z,78.21
2017-10-21T12:51:55.565Z,77.11
2017-10-21T12:52:55.691Z,77.06